sensor_id;sensor_type;location;lat;lon;timestamp;P1;durP1;ratioP1;P2;durP2;ratioP2
73474;SDS011;61711;52.266;10.542;2022-07-29T00:02:00;2.97;;;1.75;;
73474;SDS011;61711;52.266;10.542;2022-07-29T00:04:26;3.13;;;1.60;;
73474;SDS011;61711;52.266;10.542;2022-07-29T00:06:52;5.15;;;2.05;;
73474;SDS011;61711;52.266;10.542;2022-07-29T00:09:18;5.00;;;1.80;;
73474;SDS011;61711;52.266;10.542;2022-07-29T00:11:44;6.80;;;1.88;;
73474;SDS011;61711;52.266;10.542;2022-07-29T00:14:10;6.78;;;1.58;;
73474;SDS011;61711;52.266;10.542;2022-07-29T00:16:36;3.13;;;1.80;;
73474;SDS011;61711;52.266;10.542;2022-07-29T00:19:03;3.45;;;1.63;;
73474;SDS011;61711;52.266;10.542;2022-07-29T00:21:29;1.73;;;1.50;;
73474;SDS011;61711;52.266;10.542;2022-07-29T00:23:55;4.75;;;1.70;;
73474;SDS011;61711;52.266;10.542;2022-07-29T00:26:21;6.07;;;2.00;;
73474;SDS011;61711;52.266;10.542;2022-07-29T00:28:47;2.92;;;1.60;;
73474;SDS011;61711;52.266;10.542;2022-07-29T00:31:13;5.40;;;1.60;;
73474;SDS011;61711;52.266;10.542;2022-07-29T00:33:39;2.63;;;1.70;;
73474;SDS011;61711;52.266;10.542;2022-07-29T00:36:06;3.20;;;1.70;;
73474;SDS011;61711;52.266;10.542;2022-07-29T00:38:32;2.38;;;1.73;;
73474;SDS011;61711;52.266;10.542;2022-07-29T00:40:58;3.55;;;1.70;;
73474;SDS011;61711;52.266;10.542;2022-07-29T00:43:24;5.25;;;1.80;;
73474;SDS011;61711;52.266;10.542;2022-07-29T00:45:50;4.18;;;1.75;;
73474;SDS011;61711;52.266;10.542;2022-07-29T00:48:16;6.00;;;1.92;;
73474;SDS011;61711;52.266;10.542;2022-07-29T00:50:42;7.10;;;1.80;;
73474;SDS011;61711;52.266;10.542;2022-07-29T00:53:08;3.47;;;1.70;;
73474;SDS011;61711;52.266;10.542;2022-07-29T00:55:36;5.18;;;1.70;;
73474;SDS011;61711;52.266;10.542;2022-07-29T00:58:02;4.15;;;1.92;;
73474;SDS011;61711;52.266;10.542;2022-07-29T01:00:29;4.50;;;1.88;;
73474;SDS011;61711;52.266;10.542;2022-07-29T01:02:55;7.85;;;1.73;;
73474;SDS011;61711;52.266;10.542;2022-07-29T01:05:22;4.57;;;1.50;;
73474;SDS011;61711;52.266;10.542;2022-07-29T01:07:49;3.83;;;1.63;;
73474;SDS011;61711;52.266;10.542;2022-07-29T01:10:17;3.85;;;1.83;;
73474;SDS011;61711;52.266;10.542;2022-07-29T01:12:44;4.82;;;1.90;;
73474;SDS011;61711;52.266;10.542;2022-07-29T01:15:11;4.85;;;1.80;;
73474;SDS011;61711;52.266;10.542;2022-07-29T01:17:43;5.55;;;1.70;;
73474;SDS011;61711;52.266;10.542;2022-07-29T01:25:36;8.68;;;1.77;;
73474;SDS011;61711;52.266;10.542;2022-07-29T01:30:51;2.65;;;1.55;;
73474;SDS011;61711;52.266;10.542;2022-07-29T01:33:19;8.50;;;2.10;;
73474;SDS011;61711;52.266;10.542;2022-07-29T01:36:07;4.38;;;1.60;;
73474;SDS011;61711;52.266;10.542;2022-07-29T01:38:34;6.22;;;2.00;;
73474;SDS011;61711;52.266;10.542;2022-07-29T01:41:12;4.78;;;1.85;;
73474;SDS011;61711;52.266;10.542;2022-07-29T01:43:44;3.60;;;1.67;;
73474;SDS011;61711;52.266;10.542;2022-07-29T01:46:17;7.22;;;1.65;;
73474;SDS011;61711;52.266;10.542;2022-07-29T01:48:47;4.70;;;1.73;;
73474;SDS011;61711;52.266;10.542;2022-07-29T01:51:18;4.78;;;1.90;;
73474;SDS011;61711;52.266;10.542;2022-07-29T01:53:50;6.18;;;1.88;;
73474;SDS011;61711;52.266;10.542;2022-07-29T01:56:20;5.43;;;1.80;;
73474;SDS011;61711;52.266;10.542;2022-07-29T01:58:48;6.82;;;2.13;;
73474;SDS011;61711;52.266;10.542;2022-07-29T02:01:15;2.53;;;1.60;;
73474;SDS011;61711;52.266;10.542;2022-07-29T02:03:45;8.10;;;1.90;;
73474;SDS011;61711;52.266;10.542;2022-07-29T02:06:11;4.10;;;1.90;;
73474;SDS011;61711;52.266;10.542;2022-07-29T02:08:38;4.32;;;2.22;;
73474;SDS011;61711;52.266;10.542;2022-07-29T02:11:04;4.85;;;1.70;;
73474;SDS011;61711;52.266;10.542;2022-07-29T02:13:32;3.53;;;1.90;;
73474;SDS011;61711;52.266;10.542;2022-07-29T02:16:00;2.38;;;1.80;;
73474;SDS011;61711;52.266;10.542;2022-07-29T02:18:26;3.90;;;1.83;;
73474;SDS011;61711;52.266;10.542;2022-07-29T02:20:54;5.30;;;1.75;;
73474;SDS011;61711;52.266;10.542;2022-07-29T02:23:22;6.22;;;1.92;;
73474;SDS011;61711;52.266;10.542;2022-07-29T02:25:49;5.45;;;1.85;;
73474;SDS011;61711;52.266;10.542;2022-07-29T02:28:17;3.92;;;1.90;;
73474;SDS011;61711;52.266;10.542;2022-07-29T02:30:43;5.93;;;1.70;;
73474;SDS011;61711;52.266;10.542;2022-07-29T02:33:10;3.55;;;1.83;;
73474;SDS011;61711;52.266;10.542;2022-07-29T02:35:38;6.03;;;2.20;;
73474;SDS011;61711;52.266;10.542;2022-07-29T02:38:04;4.32;;;1.95;;
73474;SDS011;61711;52.266;10.542;2022-07-29T02:40:49;3.25;;;1.45;;
73474;SDS011;61711;52.266;10.542;2022-07-29T02:43:16;3.13;;;1.80;;
73474;SDS011;61711;52.266;10.542;2022-07-29T02:45:43;4.35;;;1.95;;
73474;SDS011;61711;52.266;10.542;2022-07-29T02:48:10;3.75;;;1.77;;
73474;SDS011;61711;52.266;10.542;2022-07-29T02:50:41;6.80;;;2.10;;
73474;SDS011;61711;52.266;10.542;2022-07-29T02:53:14;3.25;;;1.67;;
73474;SDS011;61711;52.266;10.542;2022-07-29T02:58:27;3.38;;;1.80;;
73474;SDS011;61711;52.266;10.542;2022-07-29T03:00:58;3.92;;;1.80;;
73474;SDS011;61711;52.266;10.542;2022-07-29T03:03:26;4.30;;;1.80;;
73474;SDS011;61711;52.266;10.542;2022-07-29T03:05:54;5.75;;;1.90;;
73474;SDS011;61711;52.266;10.542;2022-07-29T03:08:21;4.85;;;1.85;;
73474;SDS011;61711;52.266;10.542;2022-07-29T03:10:47;2.88;;;1.73;;
73474;SDS011;61711;52.266;10.542;2022-07-29T03:13:13;4.18;;;1.80;;
73474;SDS011;61711;52.266;10.542;2022-07-29T03:15:42;3.35;;;1.90;;
73474;SDS011;61711;52.266;10.542;2022-07-29T03:18:08;4.38;;;1.98;;
73474;SDS011;61711;52.266;10.542;2022-07-29T03:20:35;3.33;;;1.73;;
73474;SDS011;61711;52.266;10.542;2022-07-29T03:23:01;7.18;;;1.90;;
73474;SDS011;61711;52.266;10.542;2022-07-29T03:25:27;3.25;;;2.00;;
73474;SDS011;61711;52.266;10.542;2022-07-29T03:27:53;5.88;;;1.90;;
73474;SDS011;61711;52.266;10.542;2022-07-29T03:30:19;3.97;;;2.08;;
73474;SDS011;61711;52.266;10.542;2022-07-29T03:32:45;3.38;;;1.83;;
73474;SDS011;61711;52.266;10.542;2022-07-29T03:35:11;3.90;;;1.92;;
73474;SDS011;61711;52.266;10.542;2022-07-29T03:37:37;5.28;;;2.10;;
73474;SDS011;61711;52.266;10.542;2022-07-29T03:40:05;5.97;;;2.00;;
73474;SDS011;61711;52.266;10.542;2022-07-29T03:42:31;3.33;;;1.90;;
73474;SDS011;61711;52.266;10.542;2022-07-29T03:44:58;6.88;;;2.22;;
73474;SDS011;61711;52.266;10.542;2022-07-29T03:47:27;7.00;;;2.30;;
73474;SDS011;61711;52.266;10.542;2022-07-29T03:50:06;3.60;;;1.90;;
73474;SDS011;61711;52.266;10.542;2022-07-29T03:52:32;4.38;;;1.90;;
73474;SDS011;61711;52.266;10.542;2022-07-29T03:54:58;4.15;;;2.15;;
73474;SDS011;61711;52.266;10.542;2022-07-29T03:57:25;7.32;;;2.03;;
73474;SDS011;61711;52.266;10.542;2022-07-29T03:59:53;3.75;;;2.10;;
73474;SDS011;61711;52.266;10.542;2022-07-29T04:02:19;4.22;;;2.20;;
73474;SDS011;61711;52.266;10.542;2022-07-29T04:04:46;3.72;;;2.13;;
73474;SDS011;61711;52.266;10.542;2022-07-29T04:07:13;6.60;;;2.30;;
73474;SDS011;61711;52.266;10.542;2022-07-29T04:09:39;4.03;;;2.10;;
73474;SDS011;61711;52.266;10.542;2022-07-29T04:12:05;8.40;;;2.40;;
73474;SDS011;61711;52.266;10.542;2022-07-29T04:14:31;4.82;;;2.20;;
73474;SDS011;61711;52.266;10.542;2022-07-29T04:16:58;7.35;;;2.65;;
73474;SDS011;61711;52.266;10.542;2022-07-29T04:19:24;6.95;;;2.40;;
73474;SDS011;61711;52.266;10.542;2022-07-29T04:21:50;4.50;;;2.20;;
73474;SDS011;61711;52.266;10.542;2022-07-29T04:24:16;5.63;;;2.28;;
73474;SDS011;61711;52.266;10.542;2022-07-29T04:26:42;4.05;;;2.20;;
73474;SDS011;61711;52.266;10.542;2022-07-29T04:29:08;5.22;;;2.08;;
73474;SDS011;61711;52.266;10.542;2022-07-29T04:31:36;5.22;;;2.00;;
73474;SDS011;61711;52.266;10.542;2022-07-29T04:34:02;3.92;;;2.10;;
73474;SDS011;61711;52.266;10.542;2022-07-29T04:36:29;4.57;;;2.35;;
73474;SDS011;61711;52.266;10.542;2022-07-29T04:38:55;4.47;;;2.30;;
73474;SDS011;61711;52.266;10.542;2022-07-29T04:41:21;3.40;;;2.15;;
73474;SDS011;61711;52.266;10.542;2022-07-29T04:43:47;8.18;;;2.67;;
73474;SDS011;61711;52.266;10.542;2022-07-29T04:46:13;3.58;;;2.40;;
73474;SDS011;61711;52.266;10.542;2022-07-29T04:48:39;4.95;;;2.40;;
73474;SDS011;61711;52.266;10.542;2022-07-29T04:51:05;5.43;;;2.40;;
73474;SDS011;61711;52.266;10.542;2022-07-29T04:53:31;7.03;;;2.80;;
73474;SDS011;61711;52.266;10.542;2022-07-29T04:55:57;3.95;;;2.40;;
73474;SDS011;61711;52.266;10.542;2022-07-29T04:58:23;7.15;;;2.78;;
73474;SDS011;61711;52.266;10.542;2022-07-29T05:00:49;5.25;;;2.55;;
73474;SDS011;61711;52.266;10.542;2022-07-29T05:03:16;3.65;;;2.42;;
73474;SDS011;61711;52.266;10.542;2022-07-29T05:05:43;6.05;;;2.60;;
73474;SDS011;61711;52.266;10.542;2022-07-29T05:08:09;10.98;;;2.80;;
73474;SDS011;61711;52.266;10.542;2022-07-29T05:10:35;7.40;;;2.33;;
73474;SDS011;61711;52.266;10.542;2022-07-29T05:13:06;5.65;;;2.40;;
73474;SDS011;61711;52.266;10.542;2022-07-29T05:15:32;4.97;;;2.40;;
73474;SDS011;61711;52.266;10.542;2022-07-29T05:17:59;6.65;;;2.83;;
73474;SDS011;61711;52.266;10.542;2022-07-29T05:20:25;8.20;;;2.95;;
73474;SDS011;61711;52.266;10.542;2022-07-29T05:22:53;9.40;;;2.80;;
73474;SDS011;61711;52.266;10.542;2022-07-29T05:25:19;9.52;;;2.88;;
73474;SDS011;61711;52.266;10.542;2022-07-29T05:27:46;3.92;;;2.70;;
73474;SDS011;61711;52.266;10.542;2022-07-29T05:30:12;8.40;;;3.00;;
73474;SDS011;61711;52.266;10.542;2022-07-29T05:32:38;6.10;;;2.70;;
73474;SDS011;61711;52.266;10.542;2022-07-29T05:35:05;6.50;;;2.75;;
73474;SDS011;61711;52.266;10.542;2022-07-29T05:37:31;4.88;;;2.92;;
73474;SDS011;61711;52.266;10.542;2022-07-29T05:39:57;8.27;;;3.20;;
73474;SDS011;61711;52.266;10.542;2022-07-29T05:42:23;7.70;;;2.90;;
73474;SDS011;61711;52.266;10.542;2022-07-29T05:44:49;6.13;;;3.45;;
73474;SDS011;61711;52.266;10.542;2022-07-29T05:47:15;5.53;;;3.13;;
73474;SDS011;61711;52.266;10.542;2022-07-29T05:49:41;5.75;;;3.00;;
73474;SDS011;61711;52.266;10.542;2022-07-29T05:52:08;6.65;;;3.30;;
73474;SDS011;61711;52.266;10.542;2022-07-29T05:54:34;4.05;;;2.83;;
73474;SDS011;61711;52.266;10.542;2022-07-29T05:57:00;6.18;;;3.17;;
73474;SDS011;61711;52.266;10.542;2022-07-29T05:59:26;8.20;;;3.35;;
73474;SDS011;61711;52.266;10.542;2022-07-29T06:01:52;4.05;;;2.80;;
73474;SDS011;61711;52.266;10.542;2022-07-29T06:04:18;6.00;;;3.30;;
73474;SDS011;61711;52.266;10.542;2022-07-29T06:06:44;6.22;;;3.20;;
73474;SDS011;61711;52.266;10.542;2022-07-29T06:09:10;6.00;;;3.15;;
73474;SDS011;61711;52.266;10.542;2022-07-29T06:11:36;5.85;;;3.58;;
73474;SDS011;61711;52.266;10.542;2022-07-29T06:14:02;7.75;;;3.58;;
73474;SDS011;61711;52.266;10.542;2022-07-29T06:16:28;6.13;;;3.67;;
73474;SDS011;61711;52.266;10.542;2022-07-29T06:18:54;7.68;;;3.35;;
73474;SDS011;61711;52.266;10.542;2022-07-29T06:21:20;5.70;;;3.65;;
73474;SDS011;61711;52.266;10.542;2022-07-29T06:23:46;7.18;;;3.40;;
73474;SDS011;61711;52.266;10.542;2022-07-29T06:26:12;9.45;;;3.40;;
73474;SDS011;61711;52.266;10.542;2022-07-29T06:28:38;6.07;;;3.70;;
73474;SDS011;61711;52.266;10.542;2022-07-29T06:31:05;7.20;;;3.40;;
73474;SDS011;61711;52.266;10.542;2022-07-29T06:33:31;6.10;;;3.15;;
73474;SDS011;61711;52.266;10.542;2022-07-29T06:35:57;4.82;;;3.33;;
73474;SDS011;61711;52.266;10.542;2022-07-29T06:38:23;5.15;;;3.40;;
73474;SDS011;61711;52.266;10.542;2022-07-29T06:40:49;7.85;;;3.40;;
73474;SDS011;61711;52.266;10.542;2022-07-29T06:43:33;6.50;;;3.85;;
73474;SDS011;61711;52.266;10.542;2022-07-29T06:46:01;5.78;;;3.75;;
73474;SDS011;61711;52.266;10.542;2022-07-29T06:48:27;7.43;;;3.83;;
73474;SDS011;61711;52.266;10.542;2022-07-29T06:50:54;6.15;;;3.63;;
73474;SDS011;61711;52.266;10.542;2022-07-29T06:53:20;11.52;;;5.60;;
73474;SDS011;61711;52.266;10.542;2022-07-29T06:55:46;9.95;;;4.70;;
73474;SDS011;61711;52.266;10.542;2022-07-29T06:58:12;7.95;;;3.60;;
73474;SDS011;61711;52.266;10.542;2022-07-29T07:00:40;7.57;;;3.63;;
73474;SDS011;61711;52.266;10.542;2022-07-29T07:03:06;8.52;;;4.10;;
73474;SDS011;61711;52.266;10.542;2022-07-29T07:05:32;6.85;;;3.92;;
73474;SDS011;61711;52.266;10.542;2022-07-29T07:07:58;6.18;;;3.78;;
73474;SDS011;61711;52.266;10.542;2022-07-29T07:10:24;6.78;;;3.90;;
73474;SDS011;61711;52.266;10.542;2022-07-29T07:12:51;9.70;;;3.95;;
73474;SDS011;61711;52.266;10.542;2022-07-29T07:15:17;6.97;;;4.28;;
73474;SDS011;61711;52.266;10.542;2022-07-29T07:17:46;8.57;;;3.90;;
73474;SDS011;61711;52.266;10.542;2022-07-29T07:20:13;9.32;;;4.30;;
73474;SDS011;61711;52.266;10.542;2022-07-29T07:22:39;7.68;;;3.80;;
73474;SDS011;61711;52.266;10.542;2022-07-29T07:25:05;7.80;;;4.22;;
73474;SDS011;61711;52.266;10.542;2022-07-29T07:27:31;8.48;;;3.92;;
73474;SDS011;61711;52.266;10.542;2022-07-29T07:29:57;6.25;;;3.45;;
73474;SDS011;61711;52.266;10.542;2022-07-29T07:32:23;7.63;;;3.75;;
73474;SDS011;61711;52.266;10.542;2022-07-29T07:34:49;9.90;;;3.85;;
73474;SDS011;61711;52.266;10.542;2022-07-29T07:37:15;8.73;;;4.05;;
73474;SDS011;61711;52.266;10.542;2022-07-29T07:39:44;10.77;;;4.10;;
73474;SDS011;61711;52.266;10.542;2022-07-29T07:42:10;7.15;;;4.22;;
73474;SDS011;61711;52.266;10.542;2022-07-29T07:44:37;7.40;;;4.22;;
73474;SDS011;61711;52.266;10.542;2022-07-29T07:47:04;7.53;;;4.10;;
73474;SDS011;61711;52.266;10.542;2022-07-29T07:49:30;7.38;;;4.03;;
73474;SDS011;61711;52.266;10.542;2022-07-29T07:51:56;10.45;;;3.80;;
73474;SDS011;61711;52.266;10.542;2022-07-29T07:54:22;9.02;;;4.15;;
73474;SDS011;61711;52.266;10.542;2022-07-29T07:56:48;11.02;;;4.05;;
73474;SDS011;61711;52.266;10.542;2022-07-29T07:59:15;7.57;;;3.85;;
73474;SDS011;61711;52.266;10.542;2022-07-29T08:01:41;6.68;;;4.00;;
73474;SDS011;61711;52.266;10.542;2022-07-29T08:04:07;9.13;;;3.95;;
73474;SDS011;61711;52.266;10.542;2022-07-29T08:06:33;10.10;;;4.25;;
73474;SDS011;61711;52.266;10.542;2022-07-29T08:09:01;11.02;;;4.18;;
73474;SDS011;61711;52.266;10.542;2022-07-29T08:11:27;11.63;;;4.57;;
73474;SDS011;61711;52.266;10.542;2022-07-29T08:13:53;8.77;;;3.95;;
73474;SDS011;61711;52.266;10.542;2022-07-29T08:16:19;10.32;;;3.80;;
73474;SDS011;61711;52.266;10.542;2022-07-29T08:18:45;6.65;;;4.10;;
73474;SDS011;61711;52.266;10.542;2022-07-29T08:21:12;10.48;;;4.72;;
73474;SDS011;61711;52.266;10.542;2022-07-29T08:23:38;7.03;;;3.80;;
73474;SDS011;61711;52.266;10.542;2022-07-29T08:26:11;7.78;;;3.60;;
73474;SDS011;61711;52.266;10.542;2022-07-29T08:28:37;18.98;;;4.25;;
73474;SDS011;61711;52.266;10.542;2022-07-29T08:31:03;9.27;;;4.22;;
73474;SDS011;61711;52.266;10.542;2022-07-29T08:33:29;8.60;;;3.92;;
73474;SDS011;61711;52.266;10.542;2022-07-29T08:35:55;8.80;;;3.75;;
73474;SDS011;61711;52.266;10.542;2022-07-29T08:38:21;6.50;;;3.80;;
73474;SDS011;61711;52.266;10.542;2022-07-29T08:40:48;8.00;;;4.05;;
73474;SDS011;61711;52.266;10.542;2022-07-29T08:43:14;8.15;;;3.90;;
73474;SDS011;61711;52.266;10.542;2022-07-29T08:45:44;7.22;;;4.10;;
73474;SDS011;61711;52.266;10.542;2022-07-29T08:48:11;9.13;;;4.35;;
73474;SDS011;61711;52.266;10.542;2022-07-29T08:50:37;7.95;;;4.07;;
73474;SDS011;61711;52.266;10.542;2022-07-29T08:53:03;9.48;;;4.07;;
73474;SDS011;61711;52.266;10.542;2022-07-29T08:55:31;6.93;;;3.90;;
73474;SDS011;61711;52.266;10.542;2022-07-29T08:57:57;6.25;;;3.97;;
73474;SDS011;61711;52.266;10.542;2022-07-29T09:00:24;7.10;;;4.05;;
73474;SDS011;61711;52.266;10.542;2022-07-29T09:02:51;9.35;;;3.90;;
73474;SDS011;61711;52.266;10.542;2022-07-29T09:05:22;7.40;;;4.10;;
73474;SDS011;61711;52.266;10.542;2022-07-29T09:07:49;8.60;;;3.88;;
73474;SDS011;61711;52.266;10.542;2022-07-29T09:10:16;11.32;;;4.00;;
73474;SDS011;61711;52.266;10.542;2022-07-29T09:12:42;7.85;;;3.83;;
73474;SDS011;61711;52.266;10.542;2022-07-29T09:15:08;7.75;;;4.03;;
73474;SDS011;61711;52.266;10.542;2022-07-29T09:17:44;8.13;;;3.85;;
73474;SDS011;61711;52.266;10.542;2022-07-29T09:20:15;7.55;;;4.22;;
73474;SDS011;61711;52.266;10.542;2022-07-29T09:22:41;9.90;;;4.75;;
73474;SDS011;61711;52.266;10.542;2022-07-29T09:25:07;10.05;;;4.20;;
73474;SDS011;61711;52.266;10.542;2022-07-29T09:27:33;10.73;;;4.00;;
73474;SDS011;61711;52.266;10.542;2022-07-29T09:30:04;7.43;;;3.80;;
73474;SDS011;61711;52.266;10.542;2022-07-29T09:32:31;7.28;;;3.92;;
73474;SDS011;61711;52.266;10.542;2022-07-29T09:35:13;5.20;;;3.83;;
73474;SDS011;61711;52.266;10.542;2022-07-29T09:37:40;6.80;;;3.53;;
73474;SDS011;61711;52.266;10.542;2022-07-29T09:40:13;11.52;;;3.92;;
73474;SDS011;61711;52.266;10.542;2022-07-29T09:42:40;7.55;;;3.97;;
73474;SDS011;61711;52.266;10.542;2022-07-29T09:45:06;8.73;;;4.40;;
73474;SDS011;61711;52.266;10.542;2022-07-29T09:47:43;5.72;;;3.63;;
73474;SDS011;61711;52.266;10.542;2022-07-29T09:50:14;9.18;;;4.05;;
73474;SDS011;61711;52.266;10.542;2022-07-29T09:52:44;8.55;;;4.07;;
73474;SDS011;61711;52.266;10.542;2022-07-29T09:55:11;6.30;;;3.75;;
73474;SDS011;61711;52.266;10.542;2022-07-29T09:57:37;9.60;;;4.25;;
73474;SDS011;61711;52.266;10.542;2022-07-29T10:02:34;6.72;;;4.18;;
73474;SDS011;61711;52.266;10.542;2022-07-29T10:05:01;12.00;;;4.40;;
73474;SDS011;61711;52.266;10.542;2022-07-29T10:07:42;9.98;;;3.83;;
73474;SDS011;61711;52.266;10.542;2022-07-29T10:10:09;8.95;;;4.38;;
73474;SDS011;61711;52.266;10.542;2022-07-29T10:12:35;10.43;;;4.63;;
73474;SDS011;61711;52.266;10.542;2022-07-29T10:15:13;12.30;;;4.32;;
73474;SDS011;61711;52.266;10.542;2022-07-29T10:17:41;5.65;;;4.07;;
73474;SDS011;61711;52.266;10.542;2022-07-29T10:20:07;6.63;;;4.10;;
73474;SDS011;61711;52.266;10.542;2022-07-29T10:22:34;11.25;;;4.60;;
73474;SDS011;61711;52.266;10.542;2022-07-29T10:25:00;10.40;;;4.15;;
73474;SDS011;61711;52.266;10.542;2022-07-29T10:27:26;7.85;;;3.90;;
73474;SDS011;61711;52.266;10.542;2022-07-29T10:29:53;7.75;;;4.07;;
73474;SDS011;61711;52.266;10.542;2022-07-29T10:34:51;8.23;;;4.05;;
73474;SDS011;61711;52.266;10.542;2022-07-29T10:40:08;9.18;;;4.25;;
73474;SDS011;61711;52.266;10.542;2022-07-29T10:42:56;9.57;;;4.13;;
73474;SDS011;61711;52.266;10.542;2022-07-29T10:45:25;9.77;;;4.15;;
73474;SDS011;61711;52.266;10.542;2022-07-29T10:48:02;9.32;;;4.45;;
73474;SDS011;61711;52.266;10.542;2022-07-29T10:50:45;8.30;;;4.18;;
73474;SDS011;61711;52.266;10.542;2022-07-29T10:53:15;10.98;;;4.50;;
73474;SDS011;61711;52.266;10.542;2022-07-29T10:55:41;7.60;;;4.15;;
73474;SDS011;61711;52.266;10.542;2022-07-29T10:58:19;7.65;;;4.15;;
73474;SDS011;61711;52.266;10.542;2022-07-29T11:00:46;7.35;;;3.97;;
73474;SDS011;61711;52.266;10.542;2022-07-29T11:03:42;9.73;;;4.20;;
73474;SDS011;61711;52.266;10.542;2022-07-29T11:06:09;10.05;;;4.30;;
73474;SDS011;61711;52.266;10.542;2022-07-29T11:08:35;7.50;;;4.05;;
73474;SDS011;61711;52.266;10.542;2022-07-29T11:16:11;7.35;;;3.67;;
73474;SDS011;61711;52.266;10.542;2022-07-29T11:21:34;12.02;;;8.30;;
73474;SDS011;61711;52.266;10.542;2022-07-29T11:24:13;6.43;;;4.10;;
73474;SDS011;61711;52.266;10.542;2022-07-29T11:26:40;8.98;;;4.22;;
73474;SDS011;61711;52.266;10.542;2022-07-29T11:29:12;11.77;;;6.60;;
73474;SDS011;61711;52.266;10.542;2022-07-29T11:39:33;10.18;;;4.35;;
73474;SDS011;61711;52.266;10.542;2022-07-29T11:47:21;8.48;;;4.07;;
73474;SDS011;61711;52.266;10.542;2022-07-29T11:49:47;5.80;;;4.10;;
73474;SDS011;61711;52.266;10.542;2022-07-29T11:52:15;6.38;;;3.90;;
73474;SDS011;61711;52.266;10.542;2022-07-29T11:54:42;8.05;;;4.22;;
73474;SDS011;61711;52.266;10.542;2022-07-29T11:57:08;9.05;;;4.03;;
73474;SDS011;61711;52.266;10.542;2022-07-29T11:59:40;7.90;;;4.30;;
73474;SDS011;61711;52.266;10.542;2022-07-29T12:04:33;7.95;;;4.00;;
73474;SDS011;61711;52.266;10.542;2022-07-29T12:06:59;5.82;;;4.05;;
73474;SDS011;61711;52.266;10.542;2022-07-29T12:09:26;8.77;;;4.15;;
73474;SDS011;61711;52.266;10.542;2022-07-29T12:11:58;11.13;;;3.97;;
73474;SDS011;61711;52.266;10.542;2022-07-29T12:14:28;8.43;;;3.97;;
73474;SDS011;61711;52.266;10.542;2022-07-29T12:16:54;8.40;;;4.05;;
73474;SDS011;61711;52.266;10.542;2022-07-29T12:19:20;7.22;;;3.95;;
73474;SDS011;61711;52.266;10.542;2022-07-29T12:21:47;6.00;;;4.35;;
73474;SDS011;61711;52.266;10.542;2022-07-29T12:24:13;7.18;;;4.03;;
73474;SDS011;61711;52.266;10.542;2022-07-29T12:26:52;7.88;;;4.07;;
73474;SDS011;61711;52.266;10.542;2022-07-29T12:29:18;7.55;;;3.80;;
73474;SDS011;61711;52.266;10.542;2022-07-29T12:31:44;9.82;;;4.55;;
73474;SDS011;61711;52.266;10.542;2022-07-29T12:34:15;8.73;;;4.60;;
73474;SDS011;61711;52.266;10.542;2022-07-29T12:36:41;7.18;;;4.22;;
73474;SDS011;61711;52.266;10.542;2022-07-29T12:39:08;6.85;;;4.50;;
73474;SDS011;61711;52.266;10.542;2022-07-29T12:41:34;12.57;;;3.97;;
73474;SDS011;61711;52.266;10.542;2022-07-29T12:44:00;6.63;;;4.03;;
73474;SDS011;61711;52.266;10.542;2022-07-29T12:46:27;6.32;;;4.07;;
73474;SDS011;61711;52.266;10.542;2022-07-29T12:48:53;10.77;;;4.35;;
73474;SDS011;61711;52.266;10.542;2022-07-29T12:51:29;6.70;;;3.70;;
73474;SDS011;61711;52.266;10.542;2022-07-29T12:54:03;7.95;;;4.10;;
73474;SDS011;61711;52.266;10.542;2022-07-29T12:56:29;7.10;;;4.18;;
73474;SDS011;61711;52.266;10.542;2022-07-29T12:58:55;9.93;;;4.55;;
73474;SDS011;61711;52.266;10.542;2022-07-29T13:01:22;6.75;;;4.20;;
73474;SDS011;61711;52.266;10.542;2022-07-29T13:03:55;6.53;;;4.30;;
73474;SDS011;61711;52.266;10.542;2022-07-29T13:06:32;6.25;;;4.15;;
73474;SDS011;61711;52.266;10.542;2022-07-29T13:09:03;6.18;;;4.05;;
73474;SDS011;61711;52.266;10.542;2022-07-29T13:11:40;9.98;;;4.18;;
73474;SDS011;61711;52.266;10.542;2022-07-29T13:14:10;8.70;;;4.22;;
73474;SDS011;61711;52.266;10.542;2022-07-29T13:16:38;8.15;;;3.40;;
73474;SDS011;61711;52.266;10.542;2022-07-29T13:19:31;7.47;;;3.97;;
73474;SDS011;61711;52.266;10.542;2022-07-29T13:21:58;7.72;;;4.13;;
73474;SDS011;61711;52.266;10.542;2022-07-29T13:24:24;5.78;;;4.07;;
73474;SDS011;61711;52.266;10.542;2022-07-29T13:26:50;8.13;;;4.32;;
73474;SDS011;61711;52.266;10.542;2022-07-29T13:29:16;9.15;;;4.10;;
73474;SDS011;61711;52.266;10.542;2022-07-29T13:31:42;5.35;;;4.28;;
73474;SDS011;61711;52.266;10.542;2022-07-29T13:34:09;5.80;;;4.03;;
73474;SDS011;61711;52.266;10.542;2022-07-29T13:36:35;8.13;;;3.80;;
73474;SDS011;61711;52.266;10.542;2022-07-29T13:39:02;5.72;;;4.00;;
73474;SDS011;61711;52.266;10.542;2022-07-29T13:41:28;6.80;;;3.97;;
73474;SDS011;61711;52.266;10.542;2022-07-29T13:43:54;8.05;;;3.85;;
73474;SDS011;61711;52.266;10.542;2022-07-29T13:46:20;7.60;;;4.10;;
73474;SDS011;61711;52.266;10.542;2022-07-29T13:48:46;7.78;;;3.85;;
73474;SDS011;61711;52.266;10.542;2022-07-29T13:51:12;5.97;;;3.97;;
73474;SDS011;61711;52.266;10.542;2022-07-29T13:53:38;8.55;;;4.10;;
73474;SDS011;61711;52.266;10.542;2022-07-29T13:56:04;7.03;;;4.35;;
73474;SDS011;61711;52.266;10.542;2022-07-29T13:58:33;9.63;;;4.28;;
73474;SDS011;61711;52.266;10.542;2022-07-29T14:00:59;8.02;;;4.10;;
73474;SDS011;61711;52.266;10.542;2022-07-29T14:03:26;9.38;;;4.05;;
73474;SDS011;61711;52.266;10.542;2022-07-29T14:05:52;8.95;;;4.05;;
73474;SDS011;61711;52.266;10.542;2022-07-29T14:08:18;6.93;;;3.95;;
73474;SDS011;61711;52.266;10.542;2022-07-29T14:10:44;6.10;;;3.78;;
73474;SDS011;61711;52.266;10.542;2022-07-29T14:13:10;7.80;;;4.35;;
73474;SDS011;61711;52.266;10.542;2022-07-29T14:15:36;6.97;;;3.97;;
73474;SDS011;61711;52.266;10.542;2022-07-29T14:18:02;8.80;;;4.00;;
73474;SDS011;61711;52.266;10.542;2022-07-29T14:20:28;11.45;;;4.50;;
73474;SDS011;61711;52.266;10.542;2022-07-29T14:22:55;9.82;;;4.22;;
73474;SDS011;61711;52.266;10.542;2022-07-29T14:25:21;7.95;;;4.10;;
73474;SDS011;61711;52.266;10.542;2022-07-29T14:27:47;9.50;;;4.13;;
73474;SDS011;61711;52.266;10.542;2022-07-29T14:30:13;7.10;;;3.83;;
73474;SDS011;61711;52.266;10.542;2022-07-29T14:32:39;6.05;;;4.00;;
73474;SDS011;61711;52.266;10.542;2022-07-29T14:35:06;9.93;;;4.30;;
73474;SDS011;61711;52.266;10.542;2022-07-29T14:37:33;6.32;;;4.35;;
73474;SDS011;61711;52.266;10.542;2022-07-29T14:40:00;5.63;;;4.15;;
73474;SDS011;61711;52.266;10.542;2022-07-29T14:42:28;11.20;;;3.80;;
73474;SDS011;61711;52.266;10.542;2022-07-29T14:44:54;5.60;;;3.70;;
73474;SDS011;61711;52.266;10.542;2022-07-29T14:47:20;6.30;;;3.92;;
73474;SDS011;61711;52.266;10.542;2022-07-29T14:49:47;10.85;;;4.18;;
73474;SDS011;61711;52.266;10.542;2022-07-29T14:52:13;7.45;;;4.28;;
73474;SDS011;61711;52.266;10.542;2022-07-29T14:54:39;7.20;;;3.95;;
73474;SDS011;61711;52.266;10.542;2022-07-29T14:57:05;6.90;;;3.80;;
73474;SDS011;61711;52.266;10.542;2022-07-29T14:59:31;8.32;;;4.30;;
73474;SDS011;61711;52.266;10.542;2022-07-29T15:01:57;8.45;;;4.30;;
73474;SDS011;61711;52.266;10.542;2022-07-29T15:04:23;6.78;;;4.03;;
73474;SDS011;61711;52.266;10.542;2022-07-29T15:06:49;6.05;;;4.30;;
73474;SDS011;61711;52.266;10.542;2022-07-29T15:09:16;4.15;;;3.72;;
73474;SDS011;61711;52.266;10.542;2022-07-29T15:11:43;9.80;;;3.90;;
73474;SDS011;61711;52.266;10.542;2022-07-29T15:14:09;6.72;;;3.88;;
73474;SDS011;61711;52.266;10.542;2022-07-29T15:16:35;6.22;;;3.70;;
73474;SDS011;61711;52.266;10.542;2022-07-29T15:19:02;11.98;;;3.60;;